Time;durP1;ratioP1;P1;durP2;ratioP2;P2;SDS_P1;SDS_P2;PMS_P1;PMS_P2;Temp;Humidity;BMP_temperature;BMP_pressure;BME280_temperature;BME280_humidity;BME280_pressure;Samples;Min_cycle;Max_cycle;Signal;HPM_P1;HPM_P2
2021/10/24 00:00:46;;;;;;;14.85;6.45;;;;;;;;;;4858439;29;20064;-86
2021/10/24 00:03:12;;;;;;;;;;;;;;;;;;4868918;29;20104;-86
2021/10/24 00:05:39;;;;;;;15.20;6.47;;;;;;;;;;4854851;29;19925;-87
2021/10/24 00:08:07;;;;;;;14.85;5.55;;;;;;;;;;4862264;29;20049;-86
2021/10/24 00:10:34;;;;;;;16.60;6.05;;;;;;;;;;4877527;29;20568;-86
2021/10/24 00:13:02;;;;;;;;;;;;;;;;;;4859017;29;20131;-85
2021/10/24 00:15:28;;;;;;;14.73;4.97;;;;;;;;;;4881313;29;19920;-86
2021/10/24 00:17:59;;;;;;;15.05;5.75;;;;;;;;;;4865109;29;20489;-86
2021/10/24 00:20:27;;;;;;;17.35;6.70;;;;;;;;;;4860424;29;20050;-85
2021/10/24 00:22:54;;;;;;;16.80;6.85;;;;;;;;;;4857818;29;20091;-85
2021/10/24 00:25:21;;;;;;;15.93;6.30;;;;;;;;;;4860291;29;20116;-85
2021/10/24 00:27:48;;;;;;;12.30;4.38;;;;;;;;;;4855087;29;20044;-85
2021/10/24 00:30:16;;;;;;;12.70;5.25;;;;;;;;;;4871177;29;20033;-84
2021/10/24 00:32:42;;;;;;;13.32;4.30;;;;;;;;;;4869743;29;20045;-85
2021/10/24 00:35:10;;;;;;;12.20;4.20;;;;;;;;;;4862102;29;20093;-86
2021/10/24 00:37:40;;;;;;;15.60;4.35;;;;;;;;;;4856123;29;20123;-85
2021/10/24 00:40:07;;;;;;;13.52;3.90;;;;;;;;;;4858821;29;20055;-86
2021/10/24 00:42:33;;;;;;;12.13;3.75;;;;;;;;;;4881673;28;20068;-87
2021/10/24 00:45:01;;;;;;;10.50;3.50;;;;;;;;;;4868063;29;20105;-86
2021/10/24 00:47:30;;;;;;;12.75;3.63;;;;;;;;;;4863200;29;20540;-86
2021/10/24 00:49:58;;;;;;;12.90;4.20;;;;;;;;;;4884449;29;20040;-86
2021/10/24 00:52:27;;;;;;;11.93;3.72;;;;;;;;;;4866157;29;20132;-88
2021/10/24 00:54:54;;;;;;;12.98;3.72;;;;;;;;;;4865538;29;20465;-86
2021/10/24 00:57:21;;;;;;;12.07;3.70;;;;;;;;;;4865649;29;20044;-85
2021/10/24 00:59:50;;;;;;;13.50;3.00;;;;;;;;;;4869796;29;20103;-86
2021/10/24 01:02:17;;;;;;;10.25;2.83;;;;;;;;;;4873813;29;20111;-85
2021/10/24 01:04:44;;;;;;;12.07;2.97;;;;;;;;;;4860015;28;20796;-86
2021/10/24 01:07:17;;;;;;;10.48;2.78;;;;;;;;;;4855449;29;20032;-87
2021/10/24 01:09:46;;;;;;;12.85;3.28;;;;;;;;;;4859524;29;20049;-86
2021/10/24 01:12:12;;;;;;;11.13;2.97;;;;;;;;;;4863309;29;20041;-86
2021/10/24 01:14:38;;;;;;;;;;;;;;;;;;4859416;29;20052;-86
2021/10/24 01:17:12;;;;;;;11.80;3.33;;;;;;;;;;4865938;29;19919;-86
2021/10/24 01:19:38;;;;;;;10.70;2.83;;;;;;;;;;4861437;29;20074;-85
2021/10/24 01:22:05;;;;;;;12.60;3.00;;;;;;;;;;4865951;29;20032;-86
2021/10/24 01:24:32;;;;;;;8.65;2.78;;;;;;;;;;4871956;29;20060;-85
2021/10/24 01:27:02;;;;;;;12.95;3.00;;;;;;;;;;4858465;29;20200;-85
2021/10/24 01:29:32;;;;;;;9.65;2.97;;;;;;;;;;4878615;28;20216;-85
2021/10/24 01:32:01;;;;;;;8.70;2.58;;;;;;;;;;4859200;29;21552;-85
2021/10/24 01:34:27;;;;;;;9.07;3.15;;;;;;;;;;4874799;29;20107;-86
2021/10/24 01:36:54;;;;;;;11.50;2.95;;;;;;;;;;4869829;29;20036;-85
2021/10/24 01:39:20;;;;;;;;;;;;;;;;;;4873480;29;20079;-86
2021/10/24 01:41:49;;;;;;;11.90;3.17;;;;;;;;;;4906780;29;20668;-85
2021/10/24 01:44:16;;;;;;;8.32;2.30;;;;;;;;;;4907975;28;20043;-86
2021/10/24 01:46:42;;;;;;;12.82;4.90;;;;;;;;;;4882938;29;20482;-86
2021/10/24 01:49:10;;;;;;;14.30;4.07;;;;;;;;;;4898921;29;20057;-86
2021/10/24 01:51:39;;;;;;;12.05;4.07;;;;;;;;;;4883214;28;20123;-86
2021/10/24 01:54:06;;;;;;;15.27;4.07;;;;;;;;;;4883829;29;20142;-84
2021/10/24 01:56:34;;;;;;;17.10;4.15;;;;;;;;;;4903515;28;20058;-86
2021/10/24 01:59:02;;;;;;;14.50;4.40;;;;;;;;;;4890330;29;20079;-85
2021/10/24 02:01:28;;;;;;;12.80;3.47;;;;;;;;;;4889815;29;20102;-85
2021/10/24 02:03:55;;;;;;;12.02;3.83;;;;;;;;;;4894062;29;20032;-84
2021/10/24 02:06:22;;;;;;;11.40;3.72;;;;;;;;;;4899952;28;20040;-85
2021/10/24 02:08:50;;;;;;;11.88;3.30;;;;;;;;;;4902310;29;20036;-85
2021/10/24 02:11:16;;;;;;;12.15;3.78;;;;;;;;;;4901541;29;20043;-85
2021/10/24 02:13:43;;;;;;;11.75;3.35;;;;;;;;;;4888517;29;20119;-85
2021/10/24 02:16:09;;;;;;;10.48;3.00;;;;;;;;;;4917266;28;20440;-86
2021/10/24 02:18:35;;;;;;;11.18;3.10;;;;;;;;;;4887559;29;20071;-86
2021/10/24 02:21:01;;;;;;;9.80;2.58;;;;;;;;;;4909314;29;20146;-85
2021/10/24 02:23:27;;;;;;;;;;;;;;;;;;4908150;28;20046;-85
2021/10/24 02:25:54;;;;;;;11.05;3.25;;;;;;;;;;4889795;29;20262;-85
2021/10/24 02:28:21;;;;;;;11.82;2.25;;;;;;;;;;4894427;28;20485;-86
2021/10/24 02:30:47;;;;;;;11.98;2.75;;;;;;;;;;4905228;28;20751;-85
2021/10/24 02:33:14;;;;;;;9.85;2.60;;;;;;;;;;4905291;28;20539;-88
2021/10/24 02:35:41;;;;;;;8.80;2.92;;;;;;;;;;4893432;28;20036;-87
2021/10/24 02:38:08;;;;;;;9.00;2.72;;;;;;;;;;4904801;28;20063;-87
2021/10/24 02:40:35;;;;;;;11.82;2.30;;;;;;;;;;4903973;28;20983;-85
2021/10/24 02:43:02;;;;;;;11.55;2.40;;;;;;;;;;4892130;29;20131;-86
2021/10/24 02:45:29;;;;;;;9.40;2.45;;;;;;;;;;4904416;28;20039;-86
2021/10/24 02:47:58;;;;;;;13.82;3.40;;;;;;;;;;4890453;29;20043;-85
2021/10/24 02:50:24;;;;;;;11.00;3.47;;;;;;;;;;4905811;28;20043;-86
2021/10/24 02:52:52;;;;;;;11.88;2.90;;;;;;;;;;4886692;29;20035;-85
2021/10/24 02:55:18;;;;;;;10.10;2.63;;;;;;;;;;4874055;29;20028;-86
2021/10/24 02:57:45;;;;;;;11.65;3.13;;;;;;;;;;4893413;28;20036;-86
2021/10/24 03:00:12;;;;;;;12.00;2.80;;;;;;;;;;4905770;28;20043;-86
2021/10/24 03:02:38;;;;;;;10.02;2.95;;;;;;;;;;4901389;29;20027;-87
2021/10/24 03:05:04;;;;;;;;;;;;;;;;;;4909244;28;20044;-86
2021/10/24 03:07:32;;;;;;;11.02;2.75;;;;;;;;;;4886530;29;19922;-85
2021/10/24 03:09:58;;;;;;;11.57;2.88;;;;;;;;;;4905489;28;20126;-85
2021/10/24 03:12:25;;;;;;;10.32;2.70;;;;;;;;;;4902295;29;20042;-85
2021/10/24 03:14:53;;;;;;;10.00;2.75;;;;;;;;;;4900584;28;20040;-85
2021/10/24 03:17:19;;;;;;;10.10;3.50;;;;;;;;;;4880134;29;20042;-84
2021/10/24 03:19:45;;;;;;;9.70;3.00;;;;;;;;;;4904372;28;20136;-85
2021/10/24 03:22:12;;;;;;;10.80;3.05;;;;;;;;;;4904907;29;20079;-85
2021/10/24 03:24:40;;;;;;;11.15;3.10;;;;;;;;;;4901326;28;20047;-84
2021/10/24 03:27:06;;;;;;;12.65;3.55;;;;;;;;;;4889583;29;20430;-85
2021/10/24 03:29:33;;;;;;;14.02;3.10;;;;;;;;;;4888791;28;20040;-84
2021/10/24 03:32:00;;;;;;;8.57;2.42;;;;;;;;;;4904170;29;20150;-86
2021/10/24 03:34:27;;;;;;;24.27;3.83;;;;;;;;;;4890626;29;20130;-85
2021/10/24 03:36:54;;;;;;;18.63;3.08;;;;;;;;;;4909198;28;20043;-85
2021/10/24 03:39:21;;;;;;;14.73;3.47;;;;;;;;;;4886429;29;20039;-85
2021/10/24 03:41:47;;;;;;;12.38;3.05;;;;;;;;;;4909107;28;20118;-85
2021/10/24 03:44:14;;;;;;;10.30;2.33;;;;;;;;;;4890866;28;20032;-86
2021/10/24 03:46:42;;;;;;;10.77;2.33;;;;;;;;;;4897251;28;20043;-84
2021/10/24 03:49:08;;;;;;;12.10;2.53;;;;;;;;;;4908969;29;20167;-85
2021/10/24 03:51:34;;;;;;;7.45;2.00;;;;;;;;;;4900357;28;20542;-85
2021/10/24 03:54:01;;;;;;;10.40;2.05;;;;;;;;;;4892343;29;20044;-85
2021/10/24 03:56:27;;;;;;;9.10;2.15;;;;;;;;;;4891910;28;20036;-86
2021/10/24 03:58:57;;;;;;;11.77;2.92;;;;;;;;;;4885592;29;20032;-86
2021/10/24 04:01:23;;;;;;;7.75;2.08;;;;;;;;;;4918389;28;20026;-84
2021/10/24 04:03:50;;;;;;;8.88;2.33;;;;;;;;;;4902156;28;20131;-85
2021/10/24 04:06:16;;;;;;;9.77;2.13;;;;;;;;;;4889775;28;20499;-85
2021/10/24 04:08:42;;;;;;;9.93;2.20;;;;;;;;;;4896974;29;20047;-86
2021/10/24 04:11:09;;;;;;;8.50;1.92;;;;;;;;;;4903994;28;20503;-85
2021/10/24 04:13:35;;;;;;;8.07;2.28;;;;;;;;;;4909087;29;20031;-83
2021/10/24 04:16:01;;;;;;;8.57;2.00;;;;;;;;;;4910017;28;20025;-85
2021/10/24 04:18:31;;;;;;;10.40;2.05;;;;;;;;;;4890707;29;20043;-86
2021/10/24 04:20:58;;;;;;;8.35;2.08;;;;;;;;;;4893325;28;20114;-85
2021/10/24 04:23:24;;;;;;;9.38;2.40;;;;;;;;;;4901312;28;20046;-86
2021/10/24 04:25:53;;;;;;;7.93;2.30;;;;;;;;;;4886182;28;20036;-85
2021/10/24 04:28:21;;;;;;;7.53;2.20;;;;;;;;;;4905787;29;20027;-85
2021/10/24 04:30:48;;;;;;;8.32;2.22;;;;;;;;;;4885282;28;20056;-85
2021/10/24 04:33:14;;;;;;;10.05;2.30;;;;;;;;;;4912312;28;20042;-85
2021/10/24 04:35:41;;;;;;;9.43;2.53;;;;;;;;;;4885396;29;20032;-85
2021/10/24 04:38:08;;;;;;;9.45;2.38;;;;;;;;;;4906421;29;20052;-84
2021/10/24 04:40:34;;;;;;;8.93;2.08;;;;;;;;;;4883449;28;20049;-86
2021/10/24 04:43:00;;;;;;;10.63;2.13;;;;;;;;;;4863989;29;20049;-85
2021/10/24 04:45:27;;;;;;;10.93;2.50;;;;;;;;;;4869850;29;20037;-85
2021/10/24 04:47:53;;;;;;;11.73;2.88;;;;;;;;;;4869595;29;20045;-85
2021/10/24 04:50:20;;;;;;;9.35;2.20;;;;;;;;;;4867273;29;20045;-84
2021/10/24 04:52:47;;;;;;;9.88;2.38;;;;;;;;;;4861442;29;20029;-84
2021/10/24 04:55:15;;;;;;;10.40;2.13;;;;;;;;;;4861830;29;20088;-85
2021/10/24 04:57:41;;;;;;;13.20;2.72;;;;;;;;;;4863798;29;20052;-85
2021/10/24 05:00:09;;;;;;;8.68;2.10;;;;;;;;;;4862855;29;20053;-85
2021/10/24 05:02:35;;;;;;;11.88;2.85;;;;;;;;;;4861888;28;20044;-85
2021/10/24 05:05:03;;;;;;;9.77;2.70;;;;;;;;;;4862132;29;20560;-85
2021/10/24 05:07:31;;;;;;;11.57;2.58;;;;;;;;;;4865847;29;20048;-85
2021/10/24 05:09:57;;;;;;;9.90;2.53;;;;;;;;;;4869608;29;20036;-85
2021/10/24 05:12:24;;;;;;;11.57;2.75;;;;;;;;;;4866282;29;21089;-83
2021/10/24 05:14:50;;;;;;;9.50;3.08;;;;;;;;;;4873698;29;20044;-84
2021/10/24 05:17:17;;;;;;;10.13;2.90;;;;;;;;;;4863069;29;20036;-86
2021/10/24 05:19:44;;;;;;;10.57;2.78;;;;;;;;;;4861691;29;20124;-85
2021/10/24 05:22:11;;;;;;;9.75;2.85;;;;;;;;;;4881857;29;20025;-84
2021/10/24 05:24:39;;;;;;;10.13;3.13;;;;;;;;;;4859437;29;20028;-85
2021/10/24 05:27:05;;;;;;;9.32;3.28;;;;;;;;;;4865568;29;20072;-85
2021/10/24 05:29:32;;;;;;;12.95;3.85;;;;;;;;;;4867179;29;20035;-84
2021/10/24 05:32:00;;;;;;;9.13;3.20;;;;;;;;;;4859586;29;20056;-85
2021/10/24 05:34:29;;;;;;;12.75;3.58;;;;;;;;;;4866069;29;20029;-87
2021/10/24 05:36:56;;;;;;;12.23;3.00;;;;;;;;;;4864205;29;20096;-86
2021/10/24 05:39:23;;;;;;;8.65;3.63;;;;;;;;;;4867395;29;20688;-84
2021/10/24 05:41:49;;;;;;;12.32;4.28;;;;;;;;;;4885622;28;20040;-84
2021/10/24 05:44:19;;;;;;;11.38;3.20;;;;;;;;;;4898549;29;20672;-83
2021/10/24 05:46:48;;;;;;;12.48;3.10;;;;;;;;;;4903011;28;20550;-84
2021/10/24 05:49:15;;;;;;;14.55;3.00;;;;;;;;;;4885542;29;20040;-85
2021/10/24 05:51:41;;;;;;;;;;;;;;;;;;4887645;28;20162;-83
2021/10/24 05:54:07;;;;;;;12.95;3.42;;;;;;;;;;4898009;28;20281;-84
2021/10/24 05:56:33;;;;;;;10.00;2.85;;;;;;;;;;4894071;28;20028;-84
2021/10/24 05:58:59;;;;;;;10.90;2.80;;;;;;;;;;4888779;29;20057;-84
2021/10/24 06:01:26;;;;;;;11.10;2.90;;;;;;;;;;4907525;28;20022;-84
2021/10/24 06:03:54;;;;;;;8.32;2.60;;;;;;;;;;4882926;29;20043;-84
2021/10/24 06:06:21;;;;;;;9.35;3.60;;;;;;;;;;4903994;28;20578;-83
2021/10/24 06:08:47;;;;;;;8.95;2.70;;;;;;;;;;4895866;29;20122;-84
2021/10/24 06:11:19;;;;;;;13.60;3.45;;;;;;;;;;4902816;28;20049;-84
2021/10/24 06:13:46;;;;;;;14.85;4.30;;;;;;;;;;4910273;29;20042;-84
2021/10/24 06:16:12;;;;;;;10.65;3.20;;;;;;;;;;4890291;28;20036;-84
2021/10/24 06:18:39;;;;;;;12.48;3.47;;;;;;;;;;4889186;29;20564;-84
2021/10/24 06:21:06;;;;;;;11.13;3.10;;;;;;;;;;4895519;28;20126;-84
2021/10/24 06:23:32;;;;;;;;;;;;;;;;;;4900260;29;20043;-83
2021/10/24 06:25:59;;;;;;;10.85;3.47;;;;;;;;;;4911123;28;20347;-84
2021/10/24 06:28:26;;;;;;;12.20;4.38;;;;;;;;;;4890163;29;20032;-84
2021/10/24 06:30:53;;;;;;;10.70;3.90;;;;;;;;;;4884453;28;20054;-84
2021/10/24 06:33:20;;;;;;;10.50;3.47;;;;;;;;;;4902313;29;20488;-84
2021/10/24 06:35:46;;;;;;;15.05;4.38;;;;;;;;;;4899762;28;20528;-84
2021/10/24 06:38:12;;;;;;;;;;;;;;;;;;4886379;29;20226;-85
2021/10/24 06:40:40;;;;;;;13.52;3.90;;;;;;;;;;4896230;29;20374;-84
2021/10/24 06:43:06;;;;;;;10.05;3.30;;;;;;;;;;4904187;29;20031;-84
2021/10/24 06:45:34;;;;;;;12.93;3.55;;;;;;;;;;4897290;28;20048;-83
2021/10/24 06:48:03;;;;;;;11.00;3.28;;;;;;;;;;4885759;29;20102;-86
2021/10/24 06:50:32;;;;;;;11.75;3.28;;;;;;;;;;4900547;28;20047;-84
2021/10/24 06:52:59;;;;;;;14.68;3.40;;;;;;;;;;4903783;29;20064;-84
2021/10/24 06:55:25;;;;;;;12.88;3.80;;;;;;;;;;4900791;28;20547;-84
2021/10/24 06:57:56;;;;;;;10.98;3.20;;;;;;;;;;4899087;28;20039;-85
2021/10/24 07:00:24;;;;;;;11.68;3.65;;;;;;;;;;4893976;29;20044;-85
2021/10/24 07:02:51;;;;;;;9.70;3.70;;;;;;;;;;4889497;29;21915;-84
2021/10/24 07:05:18;;;;;;;10.25;3.25;;;;;;;;;;4890050;29;20035;-84
2021/10/24 07:07:44;;;;;;;8.65;3.05;;;;;;;;;;4889721;28;20028;-85
2021/10/24 07:10:10;;;;;;;;;;;;;;;;;;4894166;29;20038;-84
2021/10/24 07:12:37;;;;;;;12.68;2.70;;;;;;;;;;4903305;28;19923;-85
2021/10/24 07:15:04;;;;;;;12.45;3.22;;;;;;;;;;4896905;29;20904;-85
2021/10/24 07:17:32;;;;;;;10.93;2.95;;;;;;;;;;4885467;28;20059;-86
2021/10/24 07:19:59;;;;;;;13.40;3.80;;;;;;;;;;4890238;29;20039;-84
2021/10/24 07:22:25;;;;;;;11.50;3.42;;;;;;;;;;4909044;28;20081;-85
2021/10/24 07:24:52;;;;;;;9.40;3.13;;;;;;;;;;4898897;29;20040;-84
2021/10/24 07:27:20;;;;;;;11.82;3.70;;;;;;;;;;4908012;28;20035;-84
2021/10/24 07:29:47;;;;;;;11.13;3.53;;;;;;;;;;4885873;29;20036;-84
2021/10/24 07:32:13;;;;;;;13.60;4.10;;;;;;;;;;4891103;29;20035;-85
2021/10/24 07:34:39;;;;;;;13.52;4.30;;;;;;;;;;4907248;29;20028;-84
2021/10/24 07:37:06;;;;;;;13.80;5.50;;;;;;;;;;4904527;28;20031;-83
2021/10/24 07:39:33;;;;;;;11.98;4.63;;;;;;;;;;4903550;29;20071;-85
2021/10/24 07:42:00;;;;;;;13.75;3.78;;;;;;;;;;4902182;28;20476;-85
2021/10/24 07:44:27;;;;;;;15.48;3.90;;;;;;;;;;4907665;29;20040;-84
2021/10/24 07:46:54;;;;;;;11.43;4.53;;;;;;;;;;4908226;28;20026;-85
2021/10/24 07:49:30;;;;;;;13.75;4.57;;;;;;;;;;4902721;29;20083;-85
2021/10/24 07:51:58;;;;;;;14.75;5.03;;;;;;;;;;4910796;28;20418;-86
2021/10/24 07:54:24;;;;;;;12.50;5.03;;;;;;;;;;4891280;29;20040;-85
2021/10/24 07:56:51;;;;;;;16.13;4.97;;;;;;;;;;4901641;29;20044;-83
2021/10/24 07:59:18;;;;;;;12.20;4.88;;;;;;;;;;4909518;28;20040;-86
2021/10/24 08:01:44;;;;;;;;;;;;;;;;;;4895677;28;20026;-87
2021/10/24 08:04:10;;;;;;;13.27;5.40;;;;;;;;;;4898224;29;19919;-85
2021/10/24 08:06:36;;;;;;;;;;;;;;;;;;4910096;28;20043;-87
2021/10/24 08:09:04;;;;;;;12.93;5.00;;;;;;;;;;4887118;29;19918;-87
2021/10/24 08:11:32;;;;;;;15.15;4.68;;;;;;;;;;4890306;29;20047;-84
2021/10/24 08:14:03;;;;;;;15.38;4.55;;;;;;;;;;4886047;29;20051;-86
2021/10/24 08:16:35;;;;;;;13.40;4.50;;;;;;;;;;4886950;29;20038;-85
2021/10/24 08:19:01;;;;;;;11.75;3.65;;;;;;;;;;4906064;28;20071;-84
2021/10/24 08:21:28;;;;;;;;;;;;;;;;;;4882604;29;20086;-85
2021/10/24 08:23:54;;;;;;;9.98;4.20;;;;;;;;;;4892804;28;19929;-84
2021/10/24 08:26:22;;;;;;;11.60;3.80;;;;;;;;;;4891493;29;20087;-84
2021/10/24 08:28:50;;;;;;;13.15;4.20;;;;;;;;;;4901212;28;20049;-85
2021/10/24 08:31:24;;;;;;;12.27;3.83;;;;;;;;;;4896199;29;20488;-85
2021/10/24 08:34:02;;;;;;;10.90;3.70;;;;;;;;;;4899046;28;20098;-87
2021/10/24 08:36:31;;;;;;;11.57;3.60;;;;;;;;;;4889711;29;20052;-85
2021/10/24 08:38:59;;;;;;;10.27;3.20;;;;;;;;;;4892193;28;20039;-86
2021/10/24 08:41:29;;;;;;;12.88;3.17;;;;;;;;;;4887182;28;20055;-83
2021/10/24 08:43:58;;;;;;;12.50;3.10;;;;;;;;;;4904565;28;20043;-85
2021/10/24 08:46:24;;;;;;;13.93;3.75;;;;;;;;;;4904893;29;20087;-87
2021/10/24 08:48:51;;;;;;;12.98;3.72;;;;;;;;;;4894795;28;21145;-83
2021/10/24 08:51:18;;;;;;;12.63;3.60;;;;;;;;;;4912226;29;20103;-84
2021/10/24 08:53:49;;;;;;;12.10;3.47;;;;;;;;;;4881575;28;20539;-85
2021/10/24 08:56:21;;;;;;;11.32;3.60;;;;;;;;;;4902013;28;20044;-84
2021/10/24 08:58:49;;;;;;;12.75;3.97;;;;;;;;;;4896292;28;20086;-84
2021/10/24 09:01:16;;;;;;;10.40;2.97;;;;;;;;;;4899241;28;20035;-83
2021/10/24 09:04:04;;;;;;;12.38;3.05;;;;;;;;;;4881955;28;20071;-85
2021/10/24 09:06:43;;;;;;;13.48;3.38;;;;;;;;;;4886540;29;20043;-83
2021/10/24 09:09:22;;;;;;;11.93;2.60;;;;;;;;;;4875141;28;20506;-84
2021/10/24 09:12:06;;;;;;;9.07;2.60;;;;;;;;;;4879949;29;20048;-85
2021/10/24 09:14:36;;;;;;;13.32;3.00;;;;;;;;;;4883044;29;20051;-86
2021/10/24 09:17:03;;;;;;;10.73;2.97;;;;;;;;;;4903363;28;20043;-86
2021/10/24 09:19:36;;;;;;;13.02;3.33;;;;;;;;;;4903119;28;20024;-87
2021/10/24 09:22:12;;;;;;;11.32;2.88;;;;;;;;;;4883396;29;20107;-87
2021/10/24 09:24:38;;;;;;;10.65;3.50;;;;;;;;;;4885960;28;20079;-87
2021/10/24 09:27:14;;;;;;;12.35;3.20;;;;;;;;;;4901296;29;20768;-86
2021/10/24 09:29:48;;;;;;;9.88;3.30;;;;;;;;;;4879190;28;20131;-87
2021/10/24 09:32:15;;;;;;;10.30;3.38;;;;;;;;;;4906103;28;20032;-88
2021/10/24 09:34:42;;;;;;;10.35;3.17;;;;;;;;;;4899657;28;20074;-86
2021/10/24 09:37:09;;;;;;;10.50;3.05;;;;;;;;;;4889312;29;20042;-87
2021/10/24 09:39:37;;;;;;;11.18;3.08;;;;;;;;;;4896760;28;20135;-89
2021/10/24 09:42:31;;;;;;;9.63;2.53;;;;;;;;;;4884141;29;20035;-87
2021/10/24 09:45:13;;;;;;;10.50;2.88;;;;;;;;;;4888450;28;20047;-87
2021/10/24 09:47:40;;;;;;;10.07;2.75;;;;;;;;;;4900789;28;20078;-87
2021/10/24 09:50:08;;;;;;;10.73;2.88;;;;;;;;;;4897027;28;20074;-87
2021/10/24 09:52:35;;;;;;;9.02;2.80;;;;;;;;;;4897508;29;20046;-87
2021/10/24 09:55:04;;;;;;;10.88;3.53;;;;;;;;;;4888505;29;20047;-86
2021/10/24 09:57:31;;;;;;;10.25;3.20;;;;;;;;;;4901837;28;20630;-86
2021/10/24 09:59:59;;;;;;;11.70;4.68;;;;;;;;;;4891682;28;20043;-87
2021/10/24 10:02:26;;;;;;;14.00;4.63;;;;;;;;;;4883112;29;20033;-87
2021/10/24 10:04:52;;;;;;;9.82;3.03;;;;;;;;;;4904045;28;20036;-87
2021/10/24 10:07:18;;;;;;;9.10;3.05;;;;;;;;;;4904896;29;20101;-87
2021/10/24 10:09:50;;;;;;;9.75;2.90;;;;;;;;;;4900364;28;20035;-89
2021/10/24 10:12:20;;;;;;;9.00;2.90;;;;;;;;;;4910967;29;20036;-87
2021/10/24 10:15:06;;;;;;;9.32;2.42;;;;;;;;;;4901983;29;20609;-87
2021/10/24 10:17:33;;;;;;;7.82;2.28;;;;;;;;;;4898916;29;20054;-89
2021/10/24 10:20:20;;;;;;;11.40;4.57;;;;;;;;;;4901262;29;20048;-87
2021/10/24 10:23:03;;;;;;;11.52;4.30;;;;;;;;;;4895760;28;20134;-88
2021/10/24 10:25:34;;;;;;;12.07;3.20;;;;;;;;;;4896870;29;20054;-85
2021/10/24 10:28:05;;;;;;;8.13;2.72;;;;;;;;;;4876736;29;20040;-85
2021/10/24 10:30:37;;;;;;;11.52;3.25;;;;;;;;;;4873229;28;20044;-87
2021/10/24 10:33:25;;;;;;;10.98;3.15;;;;;;;;;;4904893;28;20032;-86
2021/10/24 10:35:53;;;;;;;8.40;2.90;;;;;;;;;;4895797;28;20042;-85
2021/10/24 10:38:32;;;;;;;9.80;2.85;;;;;;;;;;4891991;28;20036;-86
2021/10/24 10:40:59;;;;;;;7.78;2.38;;;;;;;;;;4886337;28;20048;-86
2021/10/24 10:43:26;;;;;;;7.57;2.17;;;;;;;;;;4908272;28;20758;-84
2021/10/24 10:46:04;;;;;;;7.78;2.10;;;;;;;;;;4904632;29;20793;-85
2021/10/24 10:51:47;;;;;;;7.17;2.20;;;;;;;;;;4900613;29;20047;-84
2021/10/24 10:54:13;;;;;;;8.25;2.33;;;;;;;;;;4901200;29;20036;-83
2021/10/24 10:56:44;;;;;;;8.52;2.45;;;;;;;;;;4885237;29;20043;-82
2021/10/24 10:59:14;;;;;;;7.05;2.30;;;;;;;;;;4903214;28;20067;-82
2021/10/24 11:01:40;;;;;;;7.88;2.10;;;;;;;;;;4898783;29;20488;-83
2021/10/24 11:04:21;;;;;;;6.68;1.85;;;;;;;;;;4902677;28;20049;-82
2021/10/24 11:06:49;;;;;;;7.80;1.92;;;;;;;;;;4896654;29;20039;-83
2021/10/24 11:09:42;;;;;;;8.35;2.20;;;;;;;;;;4903721;28;20039;-84
2021/10/24 11:12:14;;;;;;;6.90;1.98;;;;;;;;;;4903464;29;20931;-84
2021/10/24 11:14:41;;;;;;;8.18;2.33;;;;;;;;;;4881046;29;20031;-84
2021/10/24 11:17:08;;;;;;;8.85;2.22;;;;;;;;;;4891074;29;20039;-83
2021/10/24 11:19:40;;;;;;;10.35;2.35;;;;;;;;;;4899525;28;20102;-84
2021/10/24 11:22:09;;;;;;;7.10;2.00;;;;;;;;;;4902178;28;20040;-82
2021/10/24 11:24:52;;;;;;;6.10;2.03;;;;;;;;;;4900144;28;20645;-83
2021/10/24 11:27:22;;;;;;;8.60;2.20;;;;;;;;;;4899974;29;20036;-83
2021/10/24 11:29:55;;;;;;;7.38;2.08;;;;;;;;;;4882217;28;21458;-83
2021/10/24 11:32:30;;;;;;;7.10;2.25;;;;;;;;;;4897751;29;20150;-82
2021/10/24 11:35:01;;;;;;;9.93;2.55;;;;;;;;;;4916764;28;20122;-82
2021/10/24 11:37:50;;;;;;;8.88;2.60;;;;;;;;;;4892949;29;20039;-83
2021/10/24 11:40:18;;;;;;;10.65;2.50;;;;;;;;;;4896361;29;20052;-85
2021/10/24 11:43:03;;;;;;;10.05;2.85;;;;;;;;;;4889706;29;20035;-85
2021/10/24 11:45:38;;;;;;;8.98;2.15;;;;;;;;;;4892141;28;20035;-82
2021/10/24 11:48:09;;;;;;;10.50;2.90;;;;;;;;;;4905651;28;20507;-84
2021/10/24 11:50:46;;;;;;;9.82;2.55;;;;;;;;;;4892696;28;20048;-85
2021/10/24 11:53:18;;;;;;;8.50;2.50;;;;;;;;;;4885153;29;20051;-84
2021/10/24 11:55:46;;;;;;;9.60;2.60;;;;;;;;;;4888562;29;20040;-84
2021/10/24 11:58:24;;;;;;;8.77;2.45;;;;;;;;;;4906882;29;20040;-84
2021/10/24 12:00:50;;;;;;;9.80;2.55;;;;;;;;;;4896599;28;20045;-84
2021/10/24 12:03:45;;;;;;;8.50;2.47;;;;;;;;;;4893676;29;20119;-83
2021/10/24 12:06:12;;;;;;;7.97;2.33;;;;;;;;;;4884748;29;20031;-83
2021/10/24 12:08:46;;;;;;;9.95;2.20;;;;;;;;;;4882978;29;20037;-83
2021/10/24 12:11:21;;;;;;;9.05;2.45;;;;;;;;;;4890004;29;20186;-84
2021/10/24 12:13:49;;;;;;;9.97;2.40;;;;;;;;;;4907789;28;20042;-82
2021/10/24 12:16:29;;;;;;;10.50;2.42;;;;;;;;;;4901178;28;20051;-82
2021/10/24 12:19:30;;;;;;;7.68;2.25;;;;;;;;;;4891363;29;20068;-83
2021/10/24 12:22:09;;;;;;;7.60;2.38;;;;;;;;;;4846817;29;20041;-84
2021/10/24 12:24:51;;;;;;;9.15;2.40;;;;;;;;;;4838673;29;20529;-83
2021/10/24 12:27:24;;;;;;;8.70;2.03;;;;;;;;;;4838245;29;20475;-84
2021/10/24 12:29:56;;;;;;;9.35;2.28;;;;;;;;;;4839315;29;20055;-83
2021/10/24 12:32:23;;;;;;;9.13;2.47;;;;;;;;;;4840584;29;20505;-83
2021/10/24 12:35:07;;;;;;;9.32;2.75;;;;;;;;;;4824585;29;20136;-83
2021/10/24 12:37:37;;;;;;;9.77;2.90;;;;;;;;;;4845875;29;20071;-83
2021/10/24 12:40:18;;;;;;;8.55;2.65;;;;;;;;;;4828772;29;20616;-82
2021/10/24 12:45:57;;;;;;;9.23;2.67;;;;;;;;;;4830437;29;20765;-83
2021/10/24 12:48:25;;;;;;;6.97;2.42;;;;;;;;;;4828811;29;20037;-83
2021/10/24 12:50:52;;;;;;;9.95;3.17;;;;;;;;;;4825239;29;20055;-83
2021/10/24 12:53:23;;;;;;;10.77;2.90;;;;;;;;;;4841229;29;20148;-82
2021/10/24 12:56:00;;;;;;;11.10;3.28;;;;;;;;;;4821475;29;20439;-83
2021/10/24 12:58:26;;;;;;;8.73;2.75;;;;;;;;;;4856121;29;20051;-83
2021/10/24 13:00:55;;;;;;;8.73;2.60;;;;;;;;;;4882673;28;20495;-84
2021/10/24 13:03:21;;;;;;;8.50;2.70;;;;;;;;;;4882623;29;20033;-83
2021/10/24 13:05:54;;;;;;;12.63;2.92;;;;;;;;;;4895422;28;20069;-82
2021/10/24 13:08:20;;;;;;;9.40;2.40;;;;;;;;;;4899127;28;20040;-83
2021/10/24 13:10:47;;;;;;;7.82;2.60;;;;;;;;;;4896607;29;20428;-84
2021/10/24 13:13:16;;;;;;;7.38;2.20;;;;;;;;;;4889955;29;20107;-83
2021/10/24 13:15:46;;;;;;;7.85;2.30;;;;;;;;;;4882208;28;20032;-84
2021/10/24 13:18:14;;;;;;;8.77;3.03;;;;;;;;;;4877652;29;20068;-82
2021/10/24 13:20:44;;;;;;;10.50;3.35;;;;;;;;;;4898987;28;20094;-82
2021/10/24 13:23:11;;;;;;;9.25;2.40;;;;;;;;;;4893600;29;20044;-82
2021/10/24 13:25:37;;;;;;;8.65;2.60;;;;;;;;;;4895911;28;20078;-83
2021/10/24 13:28:05;;;;;;;7.65;2.40;;;;;;;;;;4897460;29;20057;-82
2021/10/24 13:30:37;;;;;;;10.10;2.70;;;;;;;;;;4885036;29;20039;-83
2021/10/24 13:33:04;;;;;;;8.27;2.40;;;;;;;;;;4891246;28;20043;-83
2021/10/24 13:35:32;;;;;;;9.43;2.65;;;;;;;;;;4905438;28;20054;-82
2021/10/24 13:37:58;;;;;;;7.93;2.42;;;;;;;;;;4885672;28;20107;-83
2021/10/24 13:40:35;;;;;;;8.35;2.20;;;;;;;;;;4915485;29;20054;-86
2021/10/24 13:43:04;;;;;;;8.23;2.40;;;;;;;;;;4904341;29;20052;-85
2021/10/24 13:45:36;;;;;;;8.07;2.10;;;;;;;;;;4906137;28;20036;-86
2021/10/24 13:48:05;;;;;;;8.00;2.40;;;;;;;;;;4929137;28;20047;-86
2021/10/24 13:50:38;;;;;;;9.80;2.28;;;;;;;;;;4903484;28;20044;-86
2021/10/24 13:53:17;;;;;;;8.75;2.53;;;;;;;;;;4893101;28;20472;-87
2021/10/24 13:55:44;;;;;;;11.48;3.47;;;;;;;;;;4896432;29;20027;-85
2021/10/24 13:58:10;;;;;;;10.05;2.95;;;;;;;;;;4889119;28;20032;-86
2021/10/24 14:00:36;;;;;;;10.55;3.42;;;;;;;;;;4908946;28;20039;-86
2021/10/24 14:03:03;;;;;;;14.70;3.30;;;;;;;;;;4895975;29;20722;-85
2021/10/24 14:05:32;;;;;;;12.48;4.07;;;;;;;;;;4895027;29;20531;-86
2021/10/24 14:08:00;;;;;;;11.38;4.57;;;;;;;;;;4895427;29;20046;-85
2021/10/24 14:10:28;;;;;;;9.98;3.20;;;;;;;;;;4897226;28;20047;-86
2021/10/24 14:12:55;;;;;;;10.65;3.47;;;;;;;;;;4888826;29;20455;-87
2021/10/24 14:15:26;;;;;;;10.07;2.85;;;;;;;;;;4912409;28;20040;-87
2021/10/24 14:17:52;;;;;;;11.20;3.08;;;;;;;;;;4882893;29;21031;-86
2021/10/24 14:20:19;;;;;;;10.82;3.10;;;;;;;;;;4890381;29;20110;-86
2021/10/24 14:22:47;;;;;;;9.60;2.83;;;;;;;;;;4902870;28;20098;-84
2021/10/24 14:25:14;;;;;;;11.10;3.08;;;;;;;;;;4887677;29;20032;-86
2021/10/24 14:27:42;;;;;;;10.45;3.00;;;;;;;;;;4905646;29;20040;-86
2021/10/24 14:30:09;;;;;;;10.10;3.35;;;;;;;;;;4887971;28;20150;-86
2021/10/24 14:32:39;;;;;;;9.55;3.00;;;;;;;;;;4898194;28;20040;-86
2021/10/24 14:35:06;;;;;;;12.38;3.20;;;;;;;;;;4905672;28;20035;-85
2021/10/24 14:37:39;;;;;;;10.23;3.30;;;;;;;;;;4881843;28;20138;-85
2021/10/24 14:40:07;;;;;;;8.93;2.90;;;;;;;;;;4904119;29;20056;-85
2021/10/24 14:42:36;;;;;;;11.80;3.22;;;;;;;;;;4902949;28;20118;-86
2021/10/24 14:45:02;;;;;;;10.73;3.33;;;;;;;;;;4883782;29;20075;-87
2021/10/24 14:47:29;;;;;;;13.30;3.58;;;;;;;;;;4901395;28;20497;-87
2021/10/24 14:49:55;;;;;;;12.75;3.15;;;;;;;;;;4886437;29;20048;-84
2021/10/24 14:52:21;;;;;;;10.43;3.03;;;;;;;;;;4886169;28;20056;-84
2021/10/24 14:54:48;;;;;;;10.40;3.00;;;;;;;;;;4899393;29;20035;-84